sensor_id;sensor_type;location;lat;lon;timestamp;temperature;humidity
26378;DHT22;14078;50.974;6.786;2024-03-07T00:02:21;6.80;82.90
26378;DHT22;14078;50.974;6.786;2024-03-07T00:04:49;6.60;77.90
26378;DHT22;14078;50.974;6.786;2024-03-07T00:07:15;6.50;87.60
26378;DHT22;14078;50.974;6.786;2024-03-07T00:09:42;6.40;97.40
26378;DHT22;14078;50.974;6.786;2024-03-07T00:12:09;6.20;99.90
26378;DHT22;14078;50.974;6.786;2024-03-07T00:14:36;6.10;99.90
26378;DHT22;14078;50.974;6.786;2024-03-07T00:17:03;6.00;99.90
26378;DHT22;14078;50.974;6.786;2024-03-07T00:19:29;5.90;99.90
26378;DHT22;14078;50.974;6.786;2024-03-07T00:21:56;5.80;99.90
26378;DHT22;14078;50.974;6.786;2024-03-07T00:24:23;5.80;99.90
26378;DHT22;14078;50.974;6.786;2024-03-07T00:26:53;5.80;99.90
26378;DHT22;14078;50.974;6.786;2024-03-07T00:29:19;5.80;99.90
26378;DHT22;14078;50.974;6.786;2024-03-07T00:31:47;5.70;99.90
26378;DHT22;14078;50.974;6.786;2024-03-07T00:34:14;5.70;99.90
26378;DHT22;14078;50.974;6.786;2024-03-07T00:36:42;5.70;99.90
26378;DHT22;14078;50.974;6.786;2024-03-07T00:39:09;5.70;99.90
26378;DHT22;14078;50.974;6.786;2024-03-07T00:41:37;5.70;99.90
26378;DHT22;14078;50.974;6.786;2024-03-07T00:44:04;5.70;99.90
26378;DHT22;14078;50.974;6.786;2024-03-07T00:46:31;5.70;99.90
26378;DHT22;14078;50.974;6.786;2024-03-07T00:48:59;5.70;99.90
26378;DHT22;14078;50.974;6.786;2024-03-07T00:51:26;5.60;99.90
26378;DHT22;14078;50.974;6.786;2024-03-07T00:53:54;5.60;99.90
26378;DHT22;14078;50.974;6.786;2024-03-07T00:56:20;5.50;99.90
26378;DHT22;14078;50.974;6.786;2024-03-07T00:58:48;5.50;99.90
26378;DHT22;14078;50.974;6.786;2024-03-07T01:01:14;5.50;99.90
26378;DHT22;14078;50.974;6.786;2024-03-07T01:03:44;5.40;99.90
26378;DHT22;14078;50.974;6.786;2024-03-07T01:06:12;5.40;99.90
26378;DHT22;14078;50.974;6.786;2024-03-07T01:08:39;5.40;99.90
26378;DHT22;14078;50.974;6.786;2024-03-07T01:11:06;5.30;99.90
26378;DHT22;14078;50.974;6.786;2024-03-07T01:13:35;5.30;99.90
26378;DHT22;14078;50.974;6.786;2024-03-07T01:16:02;5.30;99.90
26378;DHT22;14078;50.974;6.786;2024-03-07T01:18:29;5.40;99.90
26378;DHT22;14078;50.974;6.786;2024-03-07T01:20:58;5.30;99.90
26378;DHT22;14078;50.974;6.786;2024-03-07T01:23:26;5.30;99.90
26378;DHT22;14078;50.974;6.786;2024-03-07T01:25:54;5.30;99.90
26378;DHT22;14078;50.974;6.786;2024-03-07T01:28:22;5.30;99.90
26378;DHT22;14078;50.974;6.786;2024-03-07T01:30:50;5.40;99.90
26378;DHT22;14078;50.974;6.786;2024-03-07T01:33:16;5.40;99.90
26378;DHT22;14078;50.974;6.786;2024-03-07T01:35:43;5.40;99.90
26378;DHT22;14078;50.974;6.786;2024-03-07T01:38:10;5.40;99.90
26378;DHT22;14078;50.974;6.786;2024-03-07T01:40:40;5.40;99.90
26378;DHT22;14078;50.974;6.786;2024-03-07T01:43:06;5.40;99.90
26378;DHT22;14078;50.974;6.786;2024-03-07T01:45:33;5.30;99.90
26378;DHT22;14078;50.974;6.786;2024-03-07T01:48:02;5.30;99.90
26378;DHT22;14078;50.974;6.786;2024-03-07T01:50:29;5.30;99.90
26378;DHT22;14078;50.974;6.786;2024-03-07T01:52:56;5.30;99.90
26378;DHT22;14078;50.974;6.786;2024-03-07T01:55:23;5.30;99.90
26378;DHT22;14078;50.974;6.786;2024-03-07T01:57:51;5.20;99.90
26378;DHT22;14078;50.974;6.786;2024-03-07T02:00:18;5.20;99.90
26378;DHT22;14078;50.974;6.786;2024-03-07T02:02:45;5.20;99.90
26378;DHT22;14078;50.974;6.786;2024-03-07T02:05:12;5.10;99.90
26378;DHT22;14078;50.974;6.786;2024-03-07T02:07:39;5.10;99.90
26378;DHT22;14078;50.974;6.786;2024-03-07T02:10:06;5.10;99.90
26378;DHT22;14078;50.974;6.786;2024-03-07T02:12:34;5.10;99.90
26378;DHT22;14078;50.974;6.786;2024-03-07T02:15:03;4.90;99.90
26378;DHT22;14078;50.974;6.786;2024-03-07T02:17:30;4.90;99.90
26378;DHT22;14078;50.974;6.786;2024-03-07T02:19:57;4.90;99.90
26378;DHT22;14078;50.974;6.786;2024-03-07T02:22:25;4.90;99.90
26378;DHT22;14078;50.974;6.786;2024-03-07T02:24:52;4.80;99.90
26378;DHT22;14078;50.974;6.786;2024-03-07T02:27:19;4.80;99.90
26378;DHT22;14078;50.974;6.786;2024-03-07T02:29:46;4.70;99.90
26378;DHT22;14078;50.974;6.786;2024-03-07T02:32:13;4.60;99.90
26378;DHT22;14078;50.974;6.786;2024-03-07T02:34:39;4.60;99.90
26378;DHT22;14078;50.974;6.786;2024-03-07T02:37:06;4.50;99.90
26378;DHT22;14078;50.974;6.786;2024-03-07T02:39:36;4.50;99.90
26378;DHT22;14078;50.974;6.786;2024-03-07T02:42:02;4.50;99.90
26378;DHT22;14078;50.974;6.786;2024-03-07T02:44:29;4.50;99.90
26378;DHT22;14078;50.974;6.786;2024-03-07T02:46:57;4.50;99.90
26378;DHT22;14078;50.974;6.786;2024-03-07T02:49:23;4.40;99.90
26378;DHT22;14078;50.974;6.786;2024-03-07T02:51:50;4.40;99.90
26378;DHT22;14078;50.974;6.786;2024-03-07T02:54:17;4.40;99.90
26378;DHT22;14078;50.974;6.786;2024-03-07T02:56:45;4.40;99.90
26378;DHT22;14078;50.974;6.786;2024-03-07T02:59:12;4.40;99.90
26378;DHT22;14078;50.974;6.786;2024-03-07T03:01:38;4.40;99.90
26378;DHT22;14078;50.974;6.786;2024-03-07T03:04:06;4.40;99.90
26378;DHT22;14078;50.974;6.786;2024-03-07T03:06:33;4.40;99.90
26378;DHT22;14078;50.974;6.786;2024-03-07T03:09:00;4.40;99.90
26378;DHT22;14078;50.974;6.786;2024-03-07T03:11:27;4.30;99.90
26378;DHT22;14078;50.974;6.786;2024-03-07T03:13:55;4.30;99.90
26378;DHT22;14078;50.974;6.786;2024-03-07T03:16:21;4.20;99.90
26378;DHT22;14078;50.974;6.786;2024-03-07T03:18:48;4.30;99.90
26378;DHT22;14078;50.974;6.786;2024-03-07T03:21:15;4.20;99.90
26378;DHT22;14078;50.974;6.786;2024-03-07T03:23:42;4.20;99.90
26378;DHT22;14078;50.974;6.786;2024-03-07T03:26:09;4.20;99.90
26378;DHT22;14078;50.974;6.786;2024-03-07T03:28:36;4.20;99.90
26378;DHT22;14078;50.974;6.786;2024-03-07T03:31:04;4.10;99.90
26378;DHT22;14078;50.974;6.786;2024-03-07T03:33:30;4.20;99.90
26378;DHT22;14078;50.974;6.786;2024-03-07T03:35:57;4.20;99.90
26378;DHT22;14078;50.974;6.786;2024-03-07T03:38:24;4.10;99.90
26378;DHT22;14078;50.974;6.786;2024-03-07T03:40:51;4.10;99.90
26378;DHT22;14078;50.974;6.786;2024-03-07T03:43:17;4.10;99.90
26378;DHT22;14078;50.974;6.786;2024-03-07T03:45:45;4.10;99.90
26378;DHT22;14078;50.974;6.786;2024-03-07T03:48:14;4.10;99.90
26378;DHT22;14078;50.974;6.786;2024-03-07T03:50:40;4.20;99.90
26378;DHT22;14078;50.974;6.786;2024-03-07T03:53:07;4.20;99.90
26378;DHT22;14078;50.974;6.786;2024-03-07T03:55:34;4.30;99.90
26378;DHT22;14078;50.974;6.786;2024-03-07T03:58:02;4.20;99.90
26378;DHT22;14078;50.974;6.786;2024-03-07T04:00:30;4.20;99.90
26378;DHT22;14078;50.974;6.786;2024-03-07T04:02:57;4.30;99.90
26378;DHT22;14078;50.974;6.786;2024-03-07T04:05:25;4.30;99.90
26378;DHT22;14078;50.974;6.786;2024-03-07T04:07:52;4.20;99.90
26378;DHT22;14078;50.974;6.786;2024-03-07T04:10:20;4.20;99.90
26378;DHT22;14078;50.974;6.786;2024-03-07T04:12:47;4.20;99.90
26378;DHT22;14078;50.974;6.786;2024-03-07T04:15:15;4.10;99.90
26378;DHT22;14078;50.974;6.786;2024-03-07T04:17:42;4.10;99.90
26378;DHT22;14078;50.974;6.786;2024-03-07T04:20:10;4.10;99.90
26378;DHT22;14078;50.974;6.786;2024-03-07T04:22:39;4.00;99.90
26378;DHT22;14078;50.974;6.786;2024-03-07T04:25:07;4.00;99.90
26378;DHT22;14078;50.974;6.786;2024-03-07T04:27:35;3.90;99.90
26378;DHT22;14078;50.974;6.786;2024-03-07T04:30:06;3.80;99.90
26378;DHT22;14078;50.974;6.786;2024-03-07T04:32:35;3.80;99.90
26378;DHT22;14078;50.974;6.786;2024-03-07T04:35:02;3.80;99.90
26378;DHT22;14078;50.974;6.786;2024-03-07T04:37:33;3.70;99.90
26378;DHT22;14078;50.974;6.786;2024-03-07T04:40:03;3.70;99.90
26378;DHT22;14078;50.974;6.786;2024-03-07T04:42:36;3.60;99.90
26378;DHT22;14078;50.974;6.786;2024-03-07T04:45:03;3.60;99.90
26378;DHT22;14078;50.974;6.786;2024-03-07T04:47:30;3.60;99.90
26378;DHT22;14078;50.974;6.786;2024-03-07T04:49:57;3.50;99.90
26378;DHT22;14078;50.974;6.786;2024-03-07T04:52:24;3.60;99.90
26378;DHT22;14078;50.974;6.786;2024-03-07T04:54:50;3.60;99.90
26378;DHT22;14078;50.974;6.786;2024-03-07T04:57:18;3.50;99.90
26378;DHT22;14078;50.974;6.786;2024-03-07T04:59:45;3.50;99.90
26378;DHT22;14078;50.974;6.786;2024-03-07T05:02:12;3.50;99.90
26378;DHT22;14078;50.974;6.786;2024-03-07T05:04:39;3.60;99.90
26378;DHT22;14078;50.974;6.786;2024-03-07T05:07:05;3.60;99.90
26378;DHT22;14078;50.974;6.786;2024-03-07T05:09:32;3.50;99.90
26378;DHT22;14078;50.974;6.786;2024-03-07T05:11:59;3.50;99.90
26378;DHT22;14078;50.974;6.786;2024-03-07T05:14:27;3.50;99.90
26378;DHT22;14078;50.974;6.786;2024-03-07T05:16:53;3.50;99.90
26378;DHT22;14078;50.974;6.786;2024-03-07T05:19:31;3.50;99.90
26378;DHT22;14078;50.974;6.786;2024-03-07T05:21:58;3.50;99.90
26378;DHT22;14078;50.974;6.786;2024-03-07T05:24:25;3.50;99.90
26378;DHT22;14078;50.974;6.786;2024-03-07T05:26:52;3.50;99.90
26378;DHT22;14078;50.974;6.786;2024-03-07T05:29:19;3.50;99.90
26378;DHT22;14078;50.974;6.786;2024-03-07T05:31:48;3.50;99.90
26378;DHT22;14078;50.974;6.786;2024-03-07T05:34:15;3.60;99.90
26378;DHT22;14078;50.974;6.786;2024-03-07T05:36:44;3.60;99.90
26378;DHT22;14078;50.974;6.786;2024-03-07T05:39:12;3.60;99.90
26378;DHT22;14078;50.974;6.786;2024-03-07T05:41:40;3.70;99.90
26378;DHT22;14078;50.974;6.786;2024-03-07T05:44:08;3.70;99.90
26378;DHT22;14078;50.974;6.786;2024-03-07T05:46:36;3.80;99.90
26378;DHT22;14078;50.974;6.786;2024-03-07T05:49:08;3.90;99.90
26378;DHT22;14078;50.974;6.786;2024-03-07T05:51:35;3.90;99.90
26378;DHT22;14078;50.974;6.786;2024-03-07T05:54:02;4.00;99.90
26378;DHT22;14078;50.974;6.786;2024-03-07T05:56:32;4.00;99.90
26378;DHT22;14078;50.974;6.786;2024-03-07T05:59:01;4.00;99.90
26378;DHT22;14078;50.974;6.786;2024-03-07T06:01:29;4.10;99.90
26378;DHT22;14078;50.974;6.786;2024-03-07T06:03:58;4.20;99.90
26378;DHT22;14078;50.974;6.786;2024-03-07T06:06:26;4.30;99.90
26378;DHT22;14078;50.974;6.786;2024-03-07T06:08:53;4.30;99.90
26378;DHT22;14078;50.974;6.786;2024-03-07T06:11:20;4.40;99.90
26378;DHT22;14078;50.974;6.786;2024-03-07T06:13:46;4.50;99.90
26378;DHT22;14078;50.974;6.786;2024-03-07T06:16:13;4.50;99.90
26378;DHT22;14078;50.974;6.786;2024-03-07T06:18:40;4.60;99.90
26378;DHT22;14078;50.974;6.786;2024-03-07T06:21:07;4.60;99.90
26378;DHT22;14078;50.974;6.786;2024-03-07T06:23:35;4.60;99.90
26378;DHT22;14078;50.974;6.786;2024-03-07T06:26:01;4.70;99.90
26378;DHT22;14078;50.974;6.786;2024-03-07T06:28:37;4.70;99.90
26378;DHT22;14078;50.974;6.786;2024-03-07T06:31:04;4.70;99.90
26378;DHT22;14078;50.974;6.786;2024-03-07T06:33:33;4.80;99.90
26378;DHT22;14078;50.974;6.786;2024-03-07T06:35:59;4.80;99.90
26378;DHT22;14078;50.974;6.786;2024-03-07T06:38:27;4.80;99.90
26378;DHT22;14078;50.974;6.786;2024-03-07T06:40:55;4.90;99.90
26378;DHT22;14078;50.974;6.786;2024-03-07T06:43:22;4.90;99.90
26378;DHT22;14078;50.974;6.786;2024-03-07T06:45:49;5.00;99.90
26378;DHT22;14078;50.974;6.786;2024-03-07T06:48:15;5.10;99.90
26378;DHT22;14078;50.974;6.786;2024-03-07T06:50:43;5.10;99.90
26378;DHT22;14078;50.974;6.786;2024-03-07T06:53:10;5.10;99.90
26378;DHT22;14078;50.974;6.786;2024-03-07T06:55:36;5.20;99.90
26378;DHT22;14078;50.974;6.786;2024-03-07T06:58:05;5.20;99.90
26378;DHT22;14078;50.974;6.786;2024-03-07T07:00:31;5.20;99.90
26378;DHT22;14078;50.974;6.786;2024-03-07T07:03:01;5.10;99.90
26378;DHT22;14078;50.974;6.786;2024-03-07T07:05:30;5.10;99.90
26378;DHT22;14078;50.974;6.786;2024-03-07T07:07:56;5.10;99.90
26378;DHT22;14078;50.974;6.786;2024-03-07T07:10:23;5.00;99.90
26378;DHT22;14078;50.974;6.786;2024-03-07T07:12:50;5.00;99.90
26378;DHT22;14078;50.974;6.786;2024-03-07T07:15:21;4.90;99.90
26378;DHT22;14078;50.974;6.786;2024-03-07T07:17:48;4.90;99.90
26378;DHT22;14078;50.974;6.786;2024-03-07T07:20:15;4.90;99.90
26378;DHT22;14078;50.974;6.786;2024-03-07T07:22:43;4.90;99.90
26378;DHT22;14078;50.974;6.786;2024-03-07T07:25:11;4.90;99.90
26378;DHT22;14078;50.974;6.786;2024-03-07T07:27:40;5.00;99.90
26378;DHT22;14078;50.974;6.786;2024-03-07T07:30:09;5.00;99.90
26378;DHT22;14078;50.974;6.786;2024-03-07T07:32:37;5.00;99.90
26378;DHT22;14078;50.974;6.786;2024-03-07T07:35:04;5.00;99.90
26378;DHT22;14078;50.974;6.786;2024-03-07T07:37:35;5.00;99.90
26378;DHT22;14078;50.974;6.786;2024-03-07T07:40:01;5.00;99.90
26378;DHT22;14078;50.974;6.786;2024-03-07T07:42:29;4.90;99.90
26378;DHT22;14078;50.974;6.786;2024-03-07T07:44:55;4.90;99.90
26378;DHT22;14078;50.974;6.786;2024-03-07T07:47:22;5.00;99.90
26378;DHT22;14078;50.974;6.786;2024-03-07T07:49:50;5.00;99.90
26378;DHT22;14078;50.974;6.786;2024-03-07T07:52:16;5.10;99.90
26378;DHT22;14078;50.974;6.786;2024-03-07T07:54:43;5.10;99.90
26378;DHT22;14078;50.974;6.786;2024-03-07T07:57:10;5.20;99.90
26378;DHT22;14078;50.974;6.786;2024-03-07T07:59:36;5.20;99.90
26378;DHT22;14078;50.974;6.786;2024-03-07T08:02:03;5.30;99.90
26378;DHT22;14078;50.974;6.786;2024-03-07T08:04:31;5.50;99.90
26378;DHT22;14078;50.974;6.786;2024-03-07T08:07:00;5.60;99.90
26378;DHT22;14078;50.974;6.786;2024-03-07T08:09:27;5.70;99.90
26378;DHT22;14078;50.974;6.786;2024-03-07T08:11:54;5.80;99.90
26378;DHT22;14078;50.974;6.786;2024-03-07T08:14:20;5.90;99.90
26378;DHT22;14078;50.974;6.786;2024-03-07T08:16:48;5.90;99.90
26378;DHT22;14078;50.974;6.786;2024-03-07T08:19:16;6.00;99.90
26378;DHT22;14078;50.974;6.786;2024-03-07T08:21:43;6.00;99.90
26378;DHT22;14078;50.974;6.786;2024-03-07T08:24:11;6.10;99.90
26378;DHT22;14078;50.974;6.786;2024-03-07T08:26:37;6.20;99.90
26378;DHT22;14078;50.974;6.786;2024-03-07T08:29:09;6.30;99.90
26378;DHT22;14078;50.974;6.786;2024-03-07T08:31:36;6.40;99.90
26378;DHT22;14078;50.974;6.786;2024-03-07T08:34:03;6.50;99.90
26378;DHT22;14078;50.974;6.786;2024-03-07T08:36:30;6.60;99.90
26378;DHT22;14078;50.974;6.786;2024-03-07T08:38:56;6.60;99.90
26378;DHT22;14078;50.974;6.786;2024-03-07T08:41:24;6.70;99.90
26378;DHT22;14078;50.974;6.786;2024-03-07T08:43:51;6.80;99.90
26378;DHT22;14078;50.974;6.786;2024-03-07T08:46:18;6.80;84.20
26378;DHT22;14078;50.974;6.786;2024-03-07T08:48:45;6.90;1.00
26378;DHT22;14078;50.974;6.786;2024-03-07T08:51:11;7.00;99.90
26378;DHT22;14078;50.974;6.786;2024-03-07T08:53:38;7.00;1.00
26378;DHT22;14078;50.974;6.786;2024-03-07T08:56:05;7.10;99.90
26378;DHT22;14078;50.974;6.786;2024-03-07T08:58:33;7.10;1.00
26378;DHT22;14078;50.974;6.786;2024-03-07T09:01:00;7.20;1.00
26378;DHT22;14078;50.974;6.786;2024-03-07T09:03:27;7.20;99.90
26378;DHT22;14078;50.974;6.786;2024-03-07T09:05:53;7.30;99.90
26378;DHT22;14078;50.974;6.786;2024-03-07T09:08:21;7.30;99.90
26378;DHT22;14078;50.974;6.786;2024-03-07T09:10:47;7.40;99.90
26378;DHT22;14078;50.974;6.786;2024-03-07T09:13:14;7.40;1.00
26378;DHT22;14078;50.974;6.786;2024-03-07T09:15:42;7.50;99.90
26378;DHT22;14078;50.974;6.786;2024-03-07T09:18:08;7.50;99.90
26378;DHT22;14078;50.974;6.786;2024-03-07T09:20:35;7.60;99.90
26378;DHT22;14078;50.974;6.786;2024-03-07T09:23:02;7.60;19.10
26378;DHT22;14078;50.974;6.786;2024-03-07T09:25:29;7.60;1.00
26378;DHT22;14078;50.974;6.786;2024-03-07T09:27:58;7.50;1.00
26378;DHT22;14078;50.974;6.786;2024-03-07T09:30:25;7.60;99.90
26378;DHT22;14078;50.974;6.786;2024-03-07T09:32:54;7.60;1.00
26378;DHT22;14078;50.974;6.786;2024-03-07T09:35:21;7.50;1.00
26378;DHT22;14078;50.974;6.786;2024-03-07T09:37:48;7.30;16.80
26378;DHT22;14078;50.974;6.786;2024-03-07T09:40:15;7.20;99.90
26378;DHT22;14078;50.974;6.786;2024-03-07T09:42:43;7.20;17.00
26378;DHT22;14078;50.974;6.786;2024-03-07T09:45:14;7.20;28.00
26378;DHT22;14078;50.974;6.786;2024-03-07T09:47:45;7.30;99.90
26378;DHT22;14078;50.974;6.786;2024-03-07T09:50:15;7.40;40.10
26378;DHT22;14078;50.974;6.786;2024-03-07T09:52:46;7.60;1.00
26378;DHT22;14078;50.974;6.786;2024-03-07T09:55:15;7.60;99.90
26378;DHT22;14078;50.974;6.786;2024-03-07T09:57:43;7.70;99.90
26378;DHT22;14078;50.974;6.786;2024-03-07T10:00:12;7.70;1.00
26378;DHT22;14078;50.974;6.786;2024-03-07T10:02:50;7.70;99.90
26378;DHT22;14078;50.974;6.786;2024-03-07T10:05:21;7.70;1.00
26378;DHT22;14078;50.974;6.786;2024-03-07T10:07:48;7.70;1.00
26378;DHT22;14078;50.974;6.786;2024-03-07T10:10:16;7.80;1.00
26378;DHT22;14078;50.974;6.786;2024-03-07T10:12:43;7.70;1.00
26378;DHT22;14078;50.974;6.786;2024-03-07T10:15:10;7.60;1.00
26378;DHT22;14078;50.974;6.786;2024-03-07T10:17:38;7.60;1.00
26378;DHT22;14078;50.974;6.786;2024-03-07T10:20:06;7.60;1.00
26378;DHT22;14078;50.974;6.786;2024-03-07T10:22:36;7.60;1.00
26378;DHT22;14078;50.974;6.786;2024-03-07T10:25:04;7.70;1.00
26378;DHT22;14078;50.974;6.786;2024-03-07T10:27:31;7.80;1.00
26378;DHT22;14078;50.974;6.786;2024-03-07T10:29:57;7.90;99.90
26378;DHT22;14078;50.974;6.786;2024-03-07T10:32:24;7.90;72.50
26378;DHT22;14078;50.974;6.786;2024-03-07T10:34:52;8.00;1.00
26378;DHT22;14078;50.974;6.786;2024-03-07T10:37:19;8.00;1.00
26378;DHT22;14078;50.974;6.786;2024-03-07T10:39:47;8.10;1.00
26378;DHT22;14078;50.974;6.786;2024-03-07T10:42:16;8.20;1.00
26378;DHT22;14078;50.974;6.786;2024-03-07T10:44:44;8.30;1.00
26378;DHT22;14078;50.974;6.786;2024-03-07T10:47:15;8.30;99.90
26378;DHT22;14078;50.974;6.786;2024-03-07T10:49:48;8.20;1.00
26378;DHT22;14078;50.974;6.786;2024-03-07T10:52:27;8.10;1.00
26378;DHT22;14078;50.974;6.786;2024-03-07T10:55:10;8.10;1.00
26378;DHT22;14078;50.974;6.786;2024-03-07T10:57:45;8.10;1.00
26378;DHT22;14078;50.974;6.786;2024-03-07T11:00:14;8.10;1.00
26378;DHT22;14078;50.974;6.786;2024-03-07T11:02:55;8.20;99.90
26378;DHT22;14078;50.974;6.786;2024-03-07T11:05:25;8.30;99.90
26378;DHT22;14078;50.974;6.786;2024-03-07T11:07:56;8.40;1.00
26378;DHT22;14078;50.974;6.786;2024-03-07T11:10:24;8.50;1.00
26378;DHT22;14078;50.974;6.786;2024-03-07T11:12:51;8.60;1.00
26378;DHT22;14078;50.974;6.786;2024-03-07T11:15:19;8.60;1.00
26378;DHT22;14078;50.974;6.786;2024-03-07T11:17:48;8.60;1.00
26378;DHT22;14078;50.974;6.786;2024-03-07T11:20:20;8.50;1.00
26378;DHT22;14078;50.974;6.786;2024-03-07T11:22:46;8.40;99.90
26378;DHT22;14078;50.974;6.786;2024-03-07T11:25:13;8.40;1.00
26378;DHT22;14078;50.974;6.786;2024-03-07T11:27:51;8.40;99.90
26378;DHT22;14078;50.974;6.786;2024-03-07T11:30:19;8.50;1.00
26378;DHT22;14078;50.974;6.786;2024-03-07T11:32:46;8.70;1.00
26378;DHT22;14078;50.974;6.786;2024-03-07T11:35:14;8.90;1.00
26378;DHT22;14078;50.974;6.786;2024-03-07T11:37:42;9.10;99.90
26378;DHT22;14078;50.974;6.786;2024-03-07T11:40:12;9.00;99.90
26378;DHT22;14078;50.974;6.786;2024-03-07T11:42:46;9.10;99.90
26378;DHT22;14078;50.974;6.786;2024-03-07T11:45:14;9.00;99.90
26378;DHT22;14078;50.974;6.786;2024-03-07T11:47:51;9.10;99.90
26378;DHT22;14078;50.974;6.786;2024-03-07T11:50:23;9.10;99.90
26378;DHT22;14078;50.974;6.786;2024-03-07T11:52:51;9.10;99.90
26378;DHT22;14078;50.974;6.786;2024-03-07T11:55:18;9.20;99.90
26378;DHT22;14078;50.974;6.786;2024-03-07T11:57:46;9.30;99.90
26378;DHT22;14078;50.974;6.786;2024-03-07T12:00:14;9.40;99.90
26378;DHT22;14078;50.974;6.786;2024-03-07T12:02:42;9.40;99.90
26378;DHT22;14078;50.974;6.786;2024-03-07T12:05:10;9.50;99.90
26378;DHT22;14078;50.974;6.786;2024-03-07T12:07:41;9.40;99.90
26378;DHT22;14078;50.974;6.786;2024-03-07T12:10:09;9.40;99.90
26378;DHT22;14078;50.974;6.786;2024-03-07T12:12:36;9.40;1.00
26378;DHT22;14078;50.974;6.786;2024-03-07T12:15:06;9.40;99.90
26378;DHT22;14078;50.974;6.786;2024-03-07T12:17:41;9.30;99.90
26378;DHT22;14078;50.974;6.786;2024-03-07T12:20:08;9.40;99.90
26378;DHT22;14078;50.974;6.786;2024-03-07T12:22:50;9.40;99.90
26378;DHT22;14078;50.974;6.786;2024-03-07T12:25:18;9.50;1.00
26378;DHT22;14078;50.974;6.786;2024-03-07T12:27:47;9.50;99.90
26378;DHT22;14078;50.974;6.786;2024-03-07T12:30:18;9.50;99.90
26378;DHT22;14078;50.974;6.786;2024-03-07T12:32:47;9.70;99.90
26378;DHT22;14078;50.974;6.786;2024-03-07T12:35:14;9.90;99.90
26378;DHT22;14078;50.974;6.786;2024-03-07T12:37:41;10.20;99.90
26378;DHT22;14078;50.974;6.786;2024-03-07T12:40:11;10.00;99.90
26378;DHT22;14078;50.974;6.786;2024-03-07T12:42:46;10.00;99.90
26378;DHT22;14078;50.974;6.786;2024-03-07T12:45:12;10.00;99.90
26378;DHT22;14078;50.974;6.786;2024-03-07T12:47:46;9.80;99.90
26378;DHT22;14078;50.974;6.786;2024-03-07T12:50:16;9.70;99.90
26378;DHT22;14078;50.974;6.786;2024-03-07T12:52:43;9.50;99.90
26378;DHT22;14078;50.974;6.786;2024-03-07T12:55:10;9.50;99.90
26378;DHT22;14078;50.974;6.786;2024-03-07T12:57:38;9.50;99.90
26378;DHT22;14078;50.974;6.786;2024-03-07T13:00:07;9.50;99.90
26378;DHT22;14078;50.974;6.786;2024-03-07T13:02:48;9.40;99.90
26378;DHT22;14078;50.974;6.786;2024-03-07T13:05:15;9.50;1.00
26378;DHT22;14078;50.974;6.786;2024-03-07T13:07:46;9.70;99.90
26378;DHT22;14078;50.974;6.786;2024-03-07T13:10:14;9.90;99.90
26378;DHT22;14078;50.974;6.786;2024-03-07T13:12:42;10.20;99.90
26378;DHT22;14078;50.974;6.786;2024-03-07T13:15:11;10.40;99.90
26378;DHT22;14078;50.974;6.786;2024-03-07T13:17:38;10.40;99.90
26378;DHT22;14078;50.974;6.786;2024-03-07T13:20:09;10.20;99.90
26378;DHT22;14078;50.974;6.786;2024-03-07T13:22:38;10.00;99.90
26378;DHT22;14078;50.974;6.786;2024-03-07T13:25:08;9.90;99.90
26378;DHT22;14078;50.974;6.786;2024-03-07T13:27:40;9.70;99.90
26378;DHT22;14078;50.974;6.786;2024-03-07T13:30:10;9.70;99.90
26378;DHT22;14078;50.974;6.786;2024-03-07T13:32:49;9.50;99.90
26378;DHT22;14078;50.974;6.786;2024-03-07T13:35:19;9.50;99.90
26378;DHT22;14078;50.974;6.786;2024-03-07T13:37:47;9.50;99.90
26378;DHT22;14078;50.974;6.786;2024-03-07T13:40:14;9.60;99.90
26378;DHT22;14078;50.974;6.786;2024-03-07T13:42:50;9.60;99.90
26378;DHT22;14078;50.974;6.786;2024-03-07T13:45:17;9.70;99.90
26378;DHT22;14078;50.974;6.786;2024-03-07T13:47:46;9.70;99.90
26378;DHT22;14078;50.974;6.786;2024-03-07T13:50:14;9.70;99.90
26378;DHT22;14078;50.974;6.786;2024-03-07T13:52:42;9.80;99.90
26378;DHT22;14078;50.974;6.786;2024-03-07T13:55:30;9.90;99.90
26378;DHT22;14078;50.974;6.786;2024-03-07T13:58:01;10.00;99.90
26378;DHT22;14078;50.974;6.786;2024-03-07T14:00:40;10.00;99.90
26378;DHT22;14078;50.974;6.786;2024-03-07T14:03:26;9.90;99.90
26378;DHT22;14078;50.974;6.786;2024-03-07T14:05:59;9.90;99.90
26378;DHT22;14078;50.974;6.786;2024-03-07T14:09:13;10.10;99.90
26378;DHT22;14078;50.974;6.786;2024-03-07T14:12:28;10.20;99.90
26378;DHT22;14078;50.974;6.786;2024-03-07T14:18:24;9.90;99.90
26378;DHT22;14078;50.974;6.786;2024-03-07T14:21:40;9.80;99.90
26378;DHT22;14078;50.974;6.786;2024-03-07T14:24:43;9.80;99.90
26378;DHT22;14078;50.974;6.786;2024-03-07T14:27:23;9.70;99.90
26378;DHT22;14078;50.974;6.786;2024-03-07T14:30:07;9.70;99.90
26378;DHT22;14078;50.974;6.786;2024-03-07T14:32:37;9.70;99.90
26378;DHT22;14078;50.974;6.786;2024-03-07T14:35:11;9.70;99.90
26378;DHT22;14078;50.974;6.786;2024-03-07T14:37:52;9.70;99.90
26378;DHT22;14078;50.974;6.786;2024-03-07T14:40:22;9.80;99.90
26378;DHT22;14078;50.974;6.786;2024-03-07T14:42:54;9.80;99.90
26378;DHT22;14078;50.974;6.786;2024-03-07T14:45:25;9.70;99.90
26378;DHT22;14078;50.974;6.786;2024-03-07T14:47:54;9.70;99.90
26378;DHT22;14078;50.974;6.786;2024-03-07T14:50:21;9.60;94.90
26378;DHT22;14078;50.974;6.786;2024-03-07T14:52:49;9.50;99.90
26378;DHT22;14078;50.974;6.786;2024-03-07T14:55:17;9.50;99.90
26378;DHT22;14078;50.974;6.786;2024-03-07T14:57:46;9.50;99.90
26378;DHT22;14078;50.974;6.786;2024-03-07T15:00:13;9.40;99.90
26378;DHT22;14078;50.974;6.786;2024-03-07T15:02:46;9.50;99.90
26378;DHT22;14078;50.974;6.786;2024-03-07T15:05:13;9.40;99.90
26378;DHT22;14078;50.974;6.786;2024-03-07T15:07:40;9.40;99.90
26378;DHT22;14078;50.974;6.786;2024-03-07T15:10:10;9.50;99.90
26378;DHT22;14078;50.974;6.786;2024-03-07T15:12:45;9.50;99.90
26378;DHT22;14078;50.974;6.786;2024-03-07T15:15:12;9.40;99.90
26378;DHT22;14078;50.974;6.786;2024-03-07T15:17:40;9.40;99.90
26378;DHT22;14078;50.974;6.786;2024-03-07T15:20:08;9.40;99.90
26378;DHT22;14078;50.974;6.786;2024-03-07T15:22:40;9.40;99.90
26378;DHT22;14078;50.974;6.786;2024-03-07T15:25:12;9.30;99.90
26378;DHT22;14078;50.974;6.786;2024-03-07T15:27:39;9.30;99.90
26378;DHT22;14078;50.974;6.786;2024-03-07T15:30:08;9.20;99.90
26378;DHT22;14078;50.974;6.786;2024-03-07T15:32:39;9.20;99.90
26378;DHT22;14078;50.974;6.786;2024-03-07T15:35:07;9.30;99.90
26378;DHT22;14078;50.974;6.786;2024-03-07T15:37:38;9.40;99.90
26378;DHT22;14078;50.974;6.786;2024-03-07T15:40:06;9.40;99.90
26378;DHT22;14078;50.974;6.786;2024-03-07T15:42:37;9.40;99.90
26378;DHT22;14078;50.974;6.786;2024-03-07T15:45:05;9.40;99.90
26378;DHT22;14078;50.974;6.786;2024-03-07T15:47:38;9.40;99.90
26378;DHT22;14078;50.974;6.786;2024-03-07T15:50:05;9.30;99.90
26378;DHT22;14078;50.974;6.786;2024-03-07T15:52:32;9.20;99.90
26378;DHT22;14078;50.974;6.786;2024-03-07T15:54:59;9.10;99.90
26378;DHT22;14078;50.974;6.786;2024-03-07T15:57:26;9.00;99.90
26378;DHT22;14078;50.974;6.786;2024-03-07T15:59:53;9.00;99.90
26378;DHT22;14078;50.974;6.786;2024-03-07T16:02:20;8.90;99.90